createdAt,value
2019-05-12T00:01:31.881Z,7.40
2019-05-12T00:04:02.259Z,7.40
2019-05-12T00:06:32.635Z,7.40
2019-05-12T00:09:04.570Z,7.40
2019-05-12T00:11:34.935Z,7.40
2019-05-12T00:14:05.345Z,7.40
2019-05-12T00:16:38.419Z,7.40
2019-05-12T00:19:09.396Z,7.40
2019-05-12T00:21:40.058Z,7.50
2019-05-12T00:24:13.047Z,7.40
2019-05-12T00:26:43.666Z,7.50
2019-05-12T00:29:13.846Z,7.50
2019-05-12T00:31:44.068Z,7.50
2019-05-12T00:34:14.697Z,7.50
2019-05-12T00:36:45.081Z,7.50
2019-05-12T00:39:15.217Z,7.50
2019-05-12T00:41:48.039Z,7.50
2019-05-12T00:44:18.345Z,7.60
2019-05-12T00:46:48.904Z,7.60
2019-05-12T00:49:19.310Z,7.60
2019-05-12T00:51:49.407Z,7.60
2019-05-12T00:54:19.460Z,7.60
2019-05-12T00:56:49.548Z,7.60
2019-05-12T00:59:19.623Z,7.60
2019-05-12T01:01:50.017Z,7.60
2019-05-12T01:04:20.436Z,7.60
2019-05-12T01:06:51.975Z,7.50
2019-05-12T01:09:22.781Z,7.50
2019-05-12T01:11:52.855Z,7.50
2019-05-12T01:14:22.911Z,7.50
2019-05-12T01:16:52.987Z,7.50
2019-05-12T01:19:23.081Z,7.50
2019-05-12T01:21:53.435Z,7.50
2019-05-12T01:24:23.945Z,7.40
2019-05-12T01:26:55.113Z,7.40
2019-05-12T01:29:25.495Z,7.40
2019-05-12T01:32:18.273Z,7.40
2019-05-12T01:34:48.787Z,7.40
2019-05-12T01:37:24.940Z,7.40
2019-05-12T01:39:59.768Z,7.30
2019-05-12T01:42:28.657Z,7.30
2019-05-12T01:44:59.105Z,7.30
2019-05-12T01:47:29.261Z,7.30
2019-05-12T01:49:59.700Z,7.20
2019-05-12T01:52:30.216Z,7.30
2019-05-12T01:55:00.650Z,7.30
2019-05-12T01:57:30.751Z,7.20
2019-05-12T02:00:00.893Z,7.20
2019-05-12T02:02:31.076Z,7.10
2019-05-12T02:05:08.223Z,7.10
2019-05-12T02:07:50.651Z,7.10
2019-05-12T02:10:21.019Z,7.10
2019-05-12T02:12:51.411Z,7.10
2019-05-12T02:15:22.430Z,7.00
2019-05-12T02:17:52.881Z,7.00
2019-05-12T02:20:23.269Z,7.00
2019-05-12T02:22:53.329Z,7.00
2019-05-12T02:25:23.992Z,7.00
2019-05-12T02:27:54.029Z,6.90
2019-05-12T02:30:24.440Z,7.00
2019-05-12T02:32:58.855Z,6.90
2019-05-12T02:35:26.842Z,6.90
2019-05-12T02:37:57.011Z,6.90
2019-05-12T02:40:27.065Z,6.90
2019-05-12T02:42:57.272Z,6.90
2019-05-12T02:45:27.319Z,6.90
2019-05-12T02:47:57.410Z,6.90
2019-05-12T02:50:36.473Z,6.80
2019-05-12T02:53:07.431Z,6.80
2019-05-12T02:55:38.812Z,6.80
2019-05-12T02:58:10.262Z,6.80
2019-05-12T03:00:40.514Z,6.80
2019-05-12T03:03:14.648Z,6.80
2019-05-12T03:05:47.072Z,6.80
2019-05-12T03:08:19.462Z,6.80
2019-05-12T03:10:51.231Z,6.80
2019-05-12T03:13:21.396Z,6.80
2019-05-12T03:15:54.373Z,6.80
2019-05-12T03:18:25.270Z,6.80
2019-05-12T03:20:55.482Z,6.80
2019-05-12T03:23:25.810Z,6.80
2019-05-12T03:25:55.914Z,6.80
2019-05-12T03:28:26.018Z,6.80
2019-05-12T03:30:58.005Z,6.90
2019-05-12T03:33:40.615Z,6.90
2019-05-12T03:36:08.450Z,6.90
2019-05-12T03:38:35.985Z,6.90
2019-05-12T03:41:06.092Z,6.80
2019-05-12T03:43:36.230Z,6.80
2019-05-12T03:46:06.436Z,6.80
2019-05-12T03:48:36.510Z,6.70
2019-05-12T03:51:06.669Z,6.70
2019-05-12T03:53:36.729Z,6.70
2019-05-12T03:56:07.172Z,6.70
2019-05-12T03:58:37.234Z,6.60
2019-05-12T04:01:07.568Z,6.50
2019-05-12T04:03:37.683Z,6.50
2019-05-12T04:06:07.752Z,6.50
2019-05-12T04:08:39.132Z,6.50
2019-05-12T04:11:09.210Z,6.40
2019-05-12T04:13:40.324Z,6.40
2019-05-12T04:16:10.664Z,6.40
2019-05-12T04:18:40.841Z,6.30
2019-05-12T04:21:10.904Z,6.30
2019-05-12T04:23:44.201Z,6.30
2019-05-12T04:26:16.735Z,6.30
2019-05-12T04:28:46.267Z,6.30
2019-05-12T04:31:16.410Z,6.30
2019-05-12T04:33:46.561Z,6.20
2019-05-12T04:36:17.788Z,6.20
2019-05-12T04:38:47.847Z,6.20
2019-05-12T04:41:20.126Z,6.20
2019-05-12T04:43:49.715Z,6.20
2019-05-12T04:46:19.808Z,6.10
2019-05-12T04:48:49.899Z,6.20
2019-05-12T04:51:20.388Z,6.20
2019-05-12T04:53:54.712Z,6.20
2019-05-12T04:56:24.913Z,6.10
2019-05-12T04:58:55.479Z,6.10
2019-05-12T05:01:25.660Z,6.10
2019-05-12T05:03:56.101Z,6.00
2019-05-12T05:06:26.399Z,6.00
2019-05-12T05:08:58.170Z,6.00
2019-05-12T05:11:40.221Z,5.90
2019-05-12T05:14:10.614Z,5.90
2019-05-12T05:16:40.761Z,5.90
2019-05-12T05:19:10.916Z,5.80
2019-05-12T05:21:41.064Z,5.90
2019-05-12T05:24:11.191Z,5.80
2019-05-12T05:26:43.523Z,5.80
2019-05-12T05:29:13.751Z,5.70
2019-05-12T05:31:44.370Z,5.80
2019-05-12T05:34:15.002Z,5.70
2019-05-12T05:36:50.990Z,5.70
2019-05-12T05:39:18.573Z,5.70
2019-05-12T05:41:50.897Z,5.70
2019-05-12T05:44:20.757Z,5.70
2019-05-12T05:46:54.637Z,5.70
2019-05-12T05:49:24.894Z,5.60
2019-05-12T05:51:57.483Z,5.60
2019-05-12T05:54:31.476Z,5.60
2019-05-12T05:57:02.788Z,5.60
2019-05-12T05:59:31.767Z,5.60
2019-05-12T06:02:04.903Z,5.60
2019-05-12T06:04:39.295Z,5.50
2019-05-12T06:07:07.894Z,5.60
2019-05-12T06:09:37.959Z,5.50
2019-05-12T06:12:09.969Z,5.50
2019-05-12T06:14:40.965Z,5.50
2019-05-12T06:17:11.868Z,5.50
2019-05-12T06:19:43.781Z,5.50
2019-05-12T06:22:18.089Z,5.50
2019-05-12T06:24:49.170Z,5.40
2019-05-12T06:27:21.090Z,5.40
2019-05-12T06:29:52.470Z,5.40
2019-05-12T06:32:21.854Z,5.40
2019-05-12T06:34:57.068Z,5.40
2019-05-12T06:37:24.031Z,5.50
2019-05-12T06:39:56.495Z,5.40
2019-05-12T06:42:25.968Z,5.50
2019-05-12T06:44:58.150Z,5.40
2019-05-12T06:47:28.210Z,5.30
2019-05-12T06:49:58.410Z,5.30
2019-05-12T06:52:33.585Z,5.20
2019-05-12T06:55:04.018Z,5.20
2019-05-12T06:57:34.955Z,5.10
2019-05-12T07:00:06.615Z,5.10
2019-05-12T07:02:48.475Z,5.10
2019-05-12T07:05:09.456Z,5.20
2019-05-12T07:07:45.934Z,5.20
2019-05-12T07:10:26.663Z,5.10
2019-05-12T07:12:55.935Z,5.10
2019-05-12T07:15:15.293Z,5.10
2019-05-12T07:17:55.782Z,5.20
2019-05-12T07:20:29.350Z,5.10
2019-05-12T07:22:57.050Z,5.10
2019-05-12T07:25:31.417Z,5.20
2019-05-12T07:28:01.554Z,5.00
2019-05-12T07:30:35.035Z,5.10
2019-05-12T07:33:05.551Z,5.10
2019-05-12T07:35:35.770Z,5.10
2019-05-12T07:38:06.122Z,5.10
2019-05-12T07:40:38.149Z,5.10
2019-05-12T07:43:15.359Z,5.10
2019-05-12T07:45:44.673Z,5.10
2019-05-12T07:48:16.193Z,5.10
2019-05-12T07:50:50.134Z,5.20
2019-05-12T07:53:18.271Z,5.10
2019-05-12T07:55:49.565Z,5.10
2019-05-12T07:58:20.407Z,5.00
2019-05-12T08:00:53.963Z,5.10
2019-05-12T08:03:24.240Z,5.00
2019-05-12T08:05:57.396Z,5.10
2019-05-12T08:08:26.285Z,5.00
2019-05-12T08:10:56.338Z,5.00
2019-05-12T08:13:31.242Z,5.00
2019-05-12T08:15:58.452Z,5.00
2019-05-12T08:18:30.507Z,5.10
2019-05-12T08:21:03.580Z,5.10
2019-05-12T08:23:33.884Z,5.10
2019-05-12T08:26:11.964Z,5.00
2019-05-12T08:28:40.376Z,5.10
2019-05-12T08:31:09.532Z,5.10
2019-05-12T08:33:39.606Z,5.10
2019-05-12T08:36:11.734Z,5.10
2019-05-12T08:38:44.244Z,5.10
2019-05-12T08:41:14.555Z,5.00
2019-05-12T08:43:47.030Z,5.00
2019-05-12T08:46:17.355Z,5.20
2019-05-12T08:48:51.523Z,5.20
2019-05-12T08:51:20.205Z,5.20
2019-05-12T08:53:56.238Z,5.20
2019-05-12T08:56:26.205Z,5.20
2019-05-12T08:58:56.479Z,5.20
2019-05-12T09:01:30.752Z,5.20
2019-05-12T09:04:00.409Z,5.20
2019-05-12T09:06:34.158Z,5.30
2019-05-12T09:09:09.160Z,5.40
2019-05-12T09:11:39.511Z,5.30
2019-05-12T09:14:09.869Z,5.30
2019-05-12T09:16:41.080Z,5.20
2019-05-12T09:19:16.641Z,5.20
2019-05-12T09:21:44.894Z,5.20
2019-05-12T09:24:21.683Z,5.30
2019-05-12T09:26:46.950Z,5.40
2019-05-12T09:29:17.059Z,5.40
2019-05-12T09:32:14.583Z,5.40
2019-05-12T09:34:58.059Z,5.40
2019-05-12T09:37:25.170Z,5.50
2019-05-12T09:39:56.547Z,5.40
2019-05-12T09:43:00.108Z,5.40
2019-05-12T09:45:19.017Z,5.30
2019-05-12T09:47:49.128Z,5.40
2019-05-12T09:50:20.420Z,5.40
2019-05-12T09:53:00.912Z,5.40
2019-05-12T09:55:36.523Z,5.30
2019-05-12T09:58:06.821Z,5.30
2019-05-12T10:01:09.788Z,5.30
2019-05-12T10:03:54.423Z,5.30
2019-05-12T10:06:26.533Z,5.40
2019-05-12T10:08:56.898Z,5.40
2019-05-12T10:11:29.846Z,5.40
2019-05-12T10:14:05.170Z,5.40
2019-05-12T10:16:33.495Z,5.40
2019-05-12T10:19:04.145Z,5.40
2019-05-12T10:21:36.024Z,5.50
2019-05-12T10:24:06.422Z,5.40
2019-05-12T10:26:41.269Z,5.50
2019-05-12T10:29:17.520Z,5.50
2019-05-12T10:31:44.368Z,5.50
2019-05-12T10:34:23.897Z,5.70
2019-05-12T10:36:54.122Z,5.70
2019-05-12T10:39:25.099Z,5.70
2019-05-12T10:41:56.258Z,5.60
2019-05-12T10:44:30.082Z,5.60
2019-05-12T10:46:59.983Z,5.60
2019-05-12T10:49:30.347Z,5.50
2019-05-12T10:52:00.836Z,5.60
2019-05-12T10:54:34.720Z,5.70
2019-05-12T10:57:07.742Z,5.60
2019-05-12T10:59:38.806Z,5.60
2019-05-12T11:02:10.039Z,5.70
2019-05-12T11:04:41.291Z,5.70
2019-05-12T11:07:13.561Z,5.80
2019-05-12T11:09:44.012Z,5.70
2019-05-12T11:12:19.245Z,5.80
2019-05-12T11:14:46.837Z,5.80
2019-05-12T11:17:19.600Z,5.80
2019-05-12T11:19:52.031Z,6.00
2019-05-12T11:22:22.992Z,6.00
2019-05-12T11:24:55.701Z,5.90
2019-05-12T11:27:24.962Z,5.80
2019-05-12T11:29:55.143Z,5.90
2019-05-12T11:32:28.729Z,6.00
2019-05-12T11:35:03.988Z,5.90
2019-05-12T11:37:35.319Z,5.90
2019-05-12T11:40:07.092Z,6.00
2019-05-12T11:42:37.211Z,6.00
2019-05-12T11:45:07.665Z,5.90
2019-05-12T11:47:38.013Z,6.10
2019-05-12T11:50:10.055Z,6.20
2019-05-12T11:52:40.182Z,6.20
2019-05-12T11:55:10.268Z,6.30
2019-05-12T11:57:40.435Z,6.20
2019-05-12T12:00:13.740Z,6.20
2019-05-12T12:02:44.202Z,6.50
2019-05-12T12:05:14.890Z,6.50
2019-05-12T12:07:51.221Z,6.50
2019-05-12T12:10:17.491Z,6.60
2019-05-12T12:12:49.207Z,6.50
2019-05-12T12:15:20.468Z,6.60
2019-05-12T12:17:53.466Z,6.70
2019-05-12T12:20:24.396Z,6.80
2019-05-12T12:22:59.869Z,6.60
2019-05-12T12:25:30.808Z,6.50
2019-05-12T12:28:04.558Z,6.60
2019-05-12T12:30:35.138Z,6.50
2019-05-12T12:33:06.827Z,6.50
2019-05-12T12:35:40.153Z,6.60
2019-05-12T12:38:14.016Z,6.50
2019-05-12T12:40:44.157Z,6.60
2019-05-12T12:43:14.384Z,6.50
2019-05-12T12:45:49.860Z,6.50
2019-05-12T12:48:25.491Z,6.40
2019-05-12T12:50:53.441Z,6.60
2019-05-12T12:53:25.784Z,6.70
2019-05-12T12:55:58.362Z,6.60
2019-05-12T12:58:31.278Z,6.60
2019-05-12T13:01:03.695Z,6.70
2019-05-12T13:03:34.397Z,6.80
2019-05-12T13:06:04.904Z,6.90
2019-05-12T13:08:35.336Z,6.80
2019-05-12T13:11:06.561Z,6.90
2019-05-12T13:13:36.612Z,7.00
2019-05-12T13:16:06.734Z,7.00
2019-05-12T13:18:36.980Z,7.10
2019-05-12T13:21:07.446Z,7.10
2019-05-12T13:23:40.917Z,7.30
2019-05-12T13:26:21.179Z,7.20
2019-05-12T13:28:53.314Z,7.30
2019-05-12T13:31:24.330Z,7.20
2019-05-12T13:33:56.618Z,7.00
2019-05-12T13:36:29.462Z,7.00
2019-05-12T13:39:01.147Z,7.00
2019-05-12T13:41:34.537Z,7.10
2019-05-12T13:44:06.375Z,7.00
2019-05-12T13:46:36.560Z,7.00
2019-05-12T13:49:06.849Z,7.00
2019-05-12T13:51:37.047Z,7.00
2019-05-12T13:54:07.587Z,7.10
2019-05-12T13:56:37.898Z,7.30
2019-05-12T13:59:12.225Z,7.40
2019-05-12T14:01:40.582Z,7.30
2019-05-12T14:04:13.818Z,7.30
2019-05-12T14:06:43.627Z,7.40
2019-05-12T14:09:14.098Z,7.30
2019-05-12T14:11:44.321Z,7.40
2019-05-12T14:14:17.679Z,7.50
2019-05-12T14:16:57.409Z,7.60
2019-05-12T14:19:19.852Z,7.40
2019-05-12T14:21:50.044Z,7.50
2019-05-12T14:24:20.256Z,7.40
2019-05-12T14:26:50.432Z,7.30
2019-05-12T14:29:26.542Z,7.30
2019-05-12T14:31:59.609Z,7.30
2019-05-12T14:34:25.115Z,7.30
2019-05-12T14:37:04.978Z,7.30
2019-05-12T14:39:27.189Z,7.20
2019-05-12T14:41:57.398Z,7.20
2019-05-12T14:44:27.822Z,7.20
2019-05-12T14:46:58.086Z,7.20
2019-05-12T14:49:30.435Z,7.20
2019-05-12T14:52:00.190Z,7.20
2019-05-12T14:54:30.565Z,7.20
2019-05-12T14:57:03.402Z,7.10
2019-05-12T14:59:36.582Z,7.10
2019-05-12T15:02:06.235Z,7.00
2019-05-12T15:04:36.636Z,7.00
2019-05-12T15:07:10.002Z,7.00
2019-05-12T15:09:40.064Z,7.10
2019-05-12T15:12:10.188Z,7.10
2019-05-12T15:14:40.309Z,7.10
2019-05-12T15:17:13.700Z,7.20
2019-05-12T15:19:44.077Z,7.20
2019-05-12T15:22:14.939Z,7.20
2019-05-12T15:24:49.221Z,7.30
2019-05-12T15:27:17.047Z,7.40
2019-05-12T15:29:49.892Z,7.40
2019-05-12T15:32:19.207Z,7.40
2019-05-12T15:34:49.373Z,7.50
2019-05-12T15:37:19.731Z,7.60
2019-05-12T15:39:50.267Z,7.60
2019-05-12T15:42:20.426Z,7.60
2019-05-12T15:44:51.012Z,7.70
2019-05-12T15:47:26.659Z,7.60
2019-05-12T15:49:53.273Z,7.70
2019-05-12T15:52:24.693Z,7.60
2019-05-12T15:54:55.124Z,7.50
2019-05-12T15:57:28.621Z,7.50
2019-05-12T15:59:57.530Z,7.60
2019-05-12T16:02:27.961Z,7.80
2019-05-12T16:04:58.174Z,7.90
2019-05-12T16:07:29.565Z,8.00
2019-05-12T16:10:00.215Z,8.20
2019-05-12T16:12:30.281Z,8.20
2019-05-12T16:15:00.503Z,8.30
2019-05-12T16:17:30.615Z,8.50
2019-05-12T16:20:03.498Z,8.70
2019-05-12T16:22:37.155Z,8.70
2019-05-12T16:25:05.676Z,8.70
2019-05-12T16:27:37.330Z,8.50
2019-05-12T16:30:10.768Z,8.70
2019-05-12T16:32:47.251Z,8.90
2019-05-12T16:35:20.350Z,9.00
2019-05-12T16:37:47.789Z,8.80
2019-05-12T16:40:18.790Z,8.40
2019-05-12T16:42:53.544Z,8.30
2019-05-12T16:45:23.335Z,8.40
2019-05-12T16:47:53.693Z,8.50
2019-05-12T16:50:27.712Z,8.50
2019-05-12T16:52:56.422Z,8.60
2019-05-12T16:55:26.796Z,8.80
2019-05-12T16:57:57.033Z,8.80
2019-05-12T17:00:30.405Z,8.50
2019-05-12T17:02:59.559Z,8.20
2019-05-12T17:05:29.617Z,8.00
2019-05-12T17:07:59.775Z,8.00
2019-05-12T17:10:39.531Z,8.20
2019-05-12T17:13:13.858Z,7.90
2019-05-12T17:15:43.373Z,7.80
2019-05-12T17:18:13.969Z,7.80
2019-05-12T17:20:46.982Z,8.00
2019-05-12T17:23:16.305Z,7.90
2019-05-12T17:25:46.420Z,7.90
2019-05-12T17:28:16.779Z,7.80
2019-05-12T17:30:46.932Z,7.70
2019-05-12T17:33:22.911Z,7.70
2019-05-12T17:35:49.097Z,7.70
2019-05-12T17:38:20.309Z,7.60
2019-05-12T17:40:59.423Z,7.50
2019-05-12T17:43:23.765Z,7.50
2019-05-12T17:45:56.895Z,7.50
2019-05-12T17:48:26.200Z,7.50
2019-05-12T17:50:56.625Z,7.40
2019-05-12T17:53:30.410Z,7.40
2019-05-12T17:55:58.718Z,7.30
2019-05-12T17:58:29.898Z,7.30
2019-05-12T18:01:00.976Z,7.30
2019-05-12T18:03:31.270Z,7.30
2019-05-12T18:06:03.562Z,7.30
2019-05-12T18:08:38.120Z,7.30
2019-05-12T18:11:11.457Z,7.30
2019-05-12T18:13:40.009Z,7.30
2019-05-12T18:16:19.979Z,7.20
2019-05-12T18:18:44.785Z,7.10
2019-05-12T18:21:21.689Z,7.10
2019-05-12T18:23:48.981Z,7.10
2019-05-12T18:26:19.010Z,7.10
2019-05-12T18:28:49.202Z,7.00
2019-05-12T18:31:19.405Z,7.00
2019-05-12T18:33:53.824Z,7.00
2019-05-12T18:36:23.651Z,6.90
2019-05-12T18:38:56.026Z,7.00
2019-05-12T18:41:25.980Z,6.90
2019-05-12T18:43:56.304Z,6.90
2019-05-12T18:46:26.578Z,7.00
2019-05-12T18:49:03.568Z,6.90
2019-05-12T18:51:29.261Z,6.80
2019-05-12T18:54:03.562Z,6.90
2019-05-12T18:56:33.658Z,6.70
2019-05-12T18:59:11.635Z,6.80
2019-05-12T19:01:36.287Z,6.90
2019-05-12T19:04:07.449Z,7.00
2019-05-12T19:06:37.846Z,6.90
2019-05-12T19:09:09.257Z,6.80
2019-05-12T19:11:42.210Z,6.80
2019-05-12T19:14:13.448Z,6.80
2019-05-12T19:16:45.049Z,6.70
2019-05-12T19:19:19.847Z,6.80
2019-05-12T19:21:58.540Z,6.70
2019-05-12T19:24:20.068Z,6.80
2019-05-12T19:26:50.593Z,6.80
2019-05-12T19:29:21.170Z,6.80
2019-05-12T19:31:54.903Z,6.80
2019-05-12T19:34:26.073Z,6.70
2019-05-12T19:36:55.329Z,6.70
2019-05-12T19:39:25.639Z,6.70
2019-05-12T19:41:57.024Z,6.60
2019-05-12T19:44:30.667Z,6.60
2019-05-12T19:47:01.093Z,6.60
2019-05-12T19:49:44.151Z,6.60
2019-05-12T19:52:03.625Z,6.60
2019-05-12T19:54:36.843Z,6.50
2019-05-12T19:57:06.198Z,6.50
2019-05-12T19:59:36.493Z,6.50
2019-05-12T20:02:07.621Z,6.50
2019-05-12T20:04:45.571Z,6.50
2019-05-12T20:07:10.324Z,6.50
2019-05-12T20:09:48.391Z,6.40
2019-05-12T20:12:18.747Z,6.40
2019-05-12T20:14:46.168Z,6.40
2019-05-12T20:17:16.659Z,6.40
2019-05-12T20:19:47.161Z,6.40
2019-05-12T20:22:17.633Z,6.40
2019-05-12T20:24:48.199Z,6.40
2019-05-12T20:27:21.972Z,6.30
2019-05-12T20:29:50.552Z,6.40
2019-05-12T20:32:21.120Z,6.40
2019-05-12T20:34:54.577Z,6.40
2019-05-12T20:37:23.546Z,6.40
2019-05-12T20:39:59.696Z,6.40
2019-05-12T20:42:27.765Z,6.40
2019-05-12T20:45:02.651Z,6.40
2019-05-12T20:47:30.388Z,6.40
2019-05-12T20:50:00.534Z,6.30
2019-05-12T20:52:30.671Z,6.30
2019-05-12T20:55:03.487Z,6.40
2019-05-12T20:57:34.537Z,6.40
2019-05-12T21:00:08.077Z,6.40
2019-05-12T21:02:38.360Z,6.40
2019-05-12T21:05:16.489Z,6.40
2019-05-12T21:07:42.718Z,6.30
2019-05-12T21:10:14.727Z,6.30
2019-05-12T21:12:50.013Z,6.30
2019-05-12T21:15:20.984Z,6.30
2019-05-12T21:18:02.266Z,6.30
2019-05-12T21:20:24.626Z,6.30
2019-05-12T21:22:55.716Z,6.20
2019-05-12T21:25:25.796Z,6.30
2019-05-12T21:28:02.628Z,6.30
2019-05-12T21:30:27.678Z,6.30
2019-05-12T21:33:01.254Z,6.20
2019-05-12T21:35:33.780Z,6.20
2019-05-12T21:38:03.990Z,6.20
2019-05-12T21:40:35.083Z,6.20
2019-05-12T21:43:06.946Z,6.20
2019-05-12T21:45:37.151Z,6.20
2019-05-12T21:48:08.723Z,6.20
2019-05-12T21:50:39.023Z,6.20
2019-05-12T21:53:16.113Z,6.20
2019-05-12T21:55:44.236Z,6.20
2019-05-12T21:58:15.242Z,6.20
2019-05-12T22:00:50.428Z,6.20
2019-05-12T22:03:24.308Z,6.30
2019-05-12T22:05:55.586Z,6.20
2019-05-12T22:08:27.829Z,6.30
2019-05-12T22:11:00.783Z,6.20
2019-05-12T22:13:29.910Z,6.20
2019-05-12T22:16:00.152Z,6.20
2019-05-12T22:18:30.524Z,6.30
2019-05-12T22:21:03.191Z,6.30
2019-05-12T22:23:33.757Z,6.30
2019-05-12T22:26:04.405Z,6.30
2019-05-12T22:28:35.319Z,6.20
2019-05-12T22:31:05.711Z,6.20
2019-05-12T22:33:40.934Z,6.30
2019-05-12T22:36:20.699Z,6.50
2019-05-12T22:38:40.697Z,6.40
2019-05-12T22:41:10.888Z,6.40
2019-05-12T22:43:45.316Z,6.40
2019-05-12T22:46:16.158Z,6.30
2019-05-12T22:48:45.292Z,6.40
2019-05-12T22:51:23.360Z,6.40
2019-05-12T22:53:47.904Z,6.30
2019-05-12T22:56:19.661Z,6.30
2019-05-12T22:58:51.919Z,6.30
2019-05-12T23:01:23.494Z,6.20
2019-05-12T23:03:55.964Z,6.20
2019-05-12T23:06:27.565Z,6.20
2019-05-12T23:08:57.806Z,6.20
2019-05-12T23:11:32.136Z,6.20
2019-05-12T23:13:59.872Z,6.20
2019-05-12T23:16:30.023Z,6.20
2019-05-12T23:19:01.553Z,6.20
2019-05-12T23:21:34.013Z,6.20
2019-05-12T23:24:04.634Z,6.10
2019-05-12T23:26:42.047Z,6.10
2019-05-12T23:29:06.906Z,6.10
2019-05-12T23:31:37.762Z,6.10
2019-05-12T23:34:12.407Z,6.20
2019-05-12T23:36:40.976Z,6.10
2019-05-12T23:39:11.195Z,6.10
2019-05-12T23:41:53.778Z,6.10
2019-05-12T23:44:24.107Z,6.10
2019-05-12T23:46:54.584Z,6.10
2019-05-12T23:49:24.991Z,6.00
2019-05-12T23:51:55.276Z,6.00
2019-05-12T23:54:25.342Z,6.00
2019-05-12T23:56:55.558Z,6.00
2019-05-12T23:59:26.010Z,6.00
